Terminal Aerodrome Forecast
Issued by NWS

Home | Current Version | Previous Version | Text Only | Print | Product List | Glossary On
Versions: 1 2 3 4 5 6 7 8 9 10 11 12 13 14
000
FTUS46 KMTR 232300
TAFSJC
TAF
KSJC 232339Z 2400/2424 30015KT P6SM FEW045 SCT140 SCT200
     FM240400 30009KT P6SM FEW045 BKN140 BKN180
     FM240800 VRB03KT P6SM BKN025
     FM241700 30005KT P6SM SCT025
     FM242000 30013KT P6SM BKN180=

USA.gov is the U.S. government's official web portal to all federal, state and local government web resources and services.